sensor_id;sensor_type;location;lat;lon;timestamp;pressure;altitude;pressure_sealevel;temperature;humidity
61337;BME280;47212;41.326;2.104;2023-07-13T00:00:29;101429.38;;;27.14;68.51
61337;BME280;47212;41.326;2.104;2023-07-13T00:05:34;101435.41;;;27.16;68.11
61337;BME280;47212;41.326;2.104;2023-07-13T00:10:40;101436.47;;;27.12;66.84
61337;BME280;47212;41.326;2.104;2023-07-13T00:15:43;101435.22;;;27.09;67.20
61337;BME280;47212;41.326;2.104;2023-07-13T00:20:49;101435.47;;;27.04;67.34
61337;BME280;47212;41.326;2.104;2023-07-13T00:25:52;101432.94;;;26.99;67.36
61337;BME280;47212;41.326;2.104;2023-07-13T00:30:55;101414.56;;;26.98;67.88
61337;BME280;47212;41.326;2.104;2023-07-13T00:35:58;101418.47;;;26.97;67.96
61337;BME280;47212;41.326;2.104;2023-07-13T00:41:02;101428.84;;;26.96;68.24
61337;BME280;47212;41.326;2.104;2023-07-13T00:46:20;101439.13;;;26.92;67.85
61337;BME280;47212;41.326;2.104;2023-07-13T00:51:50;101424.34;;;26.92;67.91
61337;BME280;47212;41.326;2.104;2023-07-13T00:56:55;101424.78;;;26.94;68.71
61337;BME280;47212;41.326;2.104;2023-07-13T01:01:59;101427.13;;;26.92;68.70
61337;BME280;47212;41.326;2.104;2023-07-13T01:07:05;101429.47;;;26.90;68.83
61337;BME280;47212;41.326;2.104;2023-07-13T01:12:08;101430.97;;;26.87;68.74
61337;BME280;47212;41.326;2.104;2023-07-13T01:17:13;101429.34;;;26.86;68.73
61337;BME280;47212;41.326;2.104;2023-07-13T01:22:18;101422.94;;;26.86;69.11
61337;BME280;47212;41.326;2.104;2023-07-13T01:27:23;101425.28;;;26.84;69.05
61337;BME280;47212;41.326;2.104;2023-07-13T01:35:16;101429.22;;;26.83;69.62
61337;BME280;47212;41.326;2.104;2023-07-13T01:40:23;101434.09;;;26.86;69.85
61337;BME280;47212;41.326;2.104;2023-07-13T01:45:40;101423.41;;;26.88;69.16
61337;BME280;47212;41.326;2.104;2023-07-13T01:50:55;101422.25;;;26.89;69.96
61337;BME280;47212;41.326;2.104;2023-07-13T01:56:03;101419.47;;;26.89;70.43
61337;BME280;47212;41.326;2.104;2023-07-13T02:01:14;101418.97;;;26.87;70.91
61337;BME280;47212;41.326;2.104;2023-07-13T02:06:20;101418.16;;;26.86;71.37
61337;BME280;47212;41.326;2.104;2023-07-13T02:11:28;101416.19;;;26.87;71.54
61337;BME280;47212;41.326;2.104;2023-07-13T02:16:44;101416.53;;;26.85;71.45
61337;BME280;47212;41.326;2.104;2023-07-13T02:21:52;101421.31;;;26.85;71.85
61337;BME280;47212;41.326;2.104;2023-07-13T02:27:07;101414.91;;;26.84;72.19
61337;BME280;47212;41.326;2.104;2023-07-13T02:32:25;101428.53;;;26.86;72.17
61337;BME280;47212;41.326;2.104;2023-07-13T02:37:32;101430.03;;;26.83;72.14
61337;BME280;47212;41.326;2.104;2023-07-13T02:42:43;101423.66;;;26.83;72.52
61337;BME280;47212;41.326;2.104;2023-07-13T02:47:55;101435.53;;;26.80;71.20
61337;BME280;47212;41.326;2.104;2023-07-13T02:53:09;101435.78;;;26.75;70.25
61337;BME280;47212;41.326;2.104;2023-07-13T02:58:23;101427.22;;;26.67;69.84
61337;BME280;47212;41.326;2.104;2023-07-13T03:03:29;101441.78;;;26.61;69.57
61337;BME280;47212;41.326;2.104;2023-07-13T03:08:35;101441.22;;;26.55;69.47
61337;BME280;47212;41.326;2.104;2023-07-13T03:13:41;101442.63;;;26.49;69.25
61337;BME280;47212;41.326;2.104;2023-07-13T03:19:12;101447.28;;;26.45;68.68
61337;BME280;47212;41.326;2.104;2023-07-13T03:24:56;101448.00;;;26.42;68.35
61337;BME280;47212;41.326;2.104;2023-07-13T03:30:14;101437.28;;;26.44;69.19
61337;BME280;47212;41.326;2.104;2023-07-13T03:35:22;101451.25;;;26.44;69.23
61337;BME280;47212;41.326;2.104;2023-07-13T03:40:30;101455.31;;;26.47;69.13
61337;BME280;47212;41.326;2.104;2023-07-13T03:45:34;101450.09;;;26.45;69.21
61337;BME280;47212;41.326;2.104;2023-07-13T03:50:38;101456.84;;;26.44;68.97
61337;BME280;47212;41.326;2.104;2023-07-13T03:55:55;101456.84;;;26.44;69.15
61337;BME280;47212;41.326;2.104;2023-07-13T04:06:33;101466.38;;;26.43;69.58
61337;BME280;47212;41.326;2.104;2023-07-13T04:11:44;101473.59;;;26.44;69.28
61337;BME280;47212;41.326;2.104;2023-07-13T04:17:03;101477.88;;;26.42;69.57
61337;BME280;47212;41.326;2.104;2023-07-13T04:38:06;101482.91;;;26.36;69.66
61337;BME280;47212;41.326;2.104;2023-07-13T04:43:14;101487.69;;;26.36;69.68
61337;BME280;47212;41.326;2.104;2023-07-13T04:48:24;101493.59;;;26.34;69.35
61337;BME280;47212;41.326;2.104;2023-07-13T04:53:30;101491.50;;;26.31;69.34
61337;BME280;47212;41.326;2.104;2023-07-13T04:58:42;101489.03;;;26.29;69.04
61337;BME280;47212;41.326;2.104;2023-07-13T05:04:00;101500.44;;;26.24;68.77
61337;BME280;47212;41.326;2.104;2023-07-13T05:09:20;101511.50;;;26.21;68.92
61337;BME280;47212;41.326;2.104;2023-07-13T05:14:28;101503.00;;;26.17;69.14
61337;BME280;47212;41.326;2.104;2023-07-13T05:19:36;101510.47;;;26.13;69.05
61337;BME280;47212;41.326;2.104;2023-07-13T05:24:40;101508.13;;;26.15;69.38
61337;BME280;47212;41.326;2.104;2023-07-13T05:29:46;101505.44;;;26.19;69.44
61337;BME280;47212;41.326;2.104;2023-07-13T05:34:53;101515.09;;;26.21;69.85
61337;BME280;47212;41.326;2.104;2023-07-13T05:39:58;101513.34;;;26.29;69.87
61337;BME280;47212;41.326;2.104;2023-07-13T05:45:04;101527.56;;;26.36;69.52
61337;BME280;47212;41.326;2.104;2023-07-13T05:50:09;101526.50;;;26.41;69.80
61337;BME280;47212;41.326;2.104;2023-07-13T05:55:15;101533.13;;;26.48;69.84
61337;BME280;47212;41.326;2.104;2023-07-13T06:00:21;101538.69;;;26.60;69.83
61337;BME280;47212;41.326;2.104;2023-07-13T06:05:35;101539.38;;;26.70;70.00
61337;BME280;47212;41.326;2.104;2023-07-13T06:11:10;101537.59;;;26.77;69.78
61337;BME280;47212;41.326;2.104;2023-07-13T06:16:24;101550.97;;;26.84;69.99
61337;BME280;47212;41.326;2.104;2023-07-13T06:21:33;101553.31;;;26.94;69.77
61337;BME280;47212;41.326;2.104;2023-07-13T06:26:37;101566.00;;;27.04;70.16
61337;BME280;47212;41.326;2.104;2023-07-13T06:31:50;101572.34;;;27.16;69.91
61337;BME280;47212;41.326;2.104;2023-07-13T06:36:54;101574.84;;;27.34;69.80
61337;BME280;47212;41.326;2.104;2023-07-13T06:42:04;101578.75;;;27.45;69.49
61337;BME280;47212;41.326;2.104;2023-07-13T06:47:21;101583.38;;;27.53;69.21
61337;BME280;47212;41.326;2.104;2023-07-13T06:52:28;101589.66;;;27.62;69.84
61337;BME280;47212;41.326;2.104;2023-07-13T06:57:34;101597.97;;;27.74;69.53
61337;BME280;47212;41.326;2.104;2023-07-13T07:02:40;101592.78;;;27.88;69.36
61337;BME280;47212;41.326;2.104;2023-07-13T07:07:59;101601.53;;;28.03;69.18
61337;BME280;47212;41.326;2.104;2023-07-13T07:13:08;101599.91;;;28.17;68.43
61337;BME280;47212;41.326;2.104;2023-07-13T07:18:19;101603.28;;;28.23;67.70
61337;BME280;47212;41.326;2.104;2023-07-13T07:23:28;101608.53;;;28.25;67.95
61337;BME280;47212;41.326;2.104;2023-07-13T07:28:37;101614.94;;;28.25;67.79
61337;BME280;47212;41.326;2.104;2023-07-13T07:34:10;101610.31;;;28.33;67.80
61337;BME280;47212;41.326;2.104;2023-07-13T07:39:19;101613.13;;;28.48;67.60
61337;BME280;47212;41.326;2.104;2023-07-13T07:44:27;101620.25;;;28.62;66.94
61337;BME280;47212;41.326;2.104;2023-07-13T07:51:05;101621.50;;;28.48;66.74
61337;BME280;47212;41.326;2.104;2023-07-13T07:56:09;101621.34;;;28.41;66.83
61337;BME280;47212;41.326;2.104;2023-07-13T08:01:15;101618.53;;;28.41;67.54
61337;BME280;47212;41.326;2.104;2023-07-13T08:06:21;101624.75;;;28.50;67.76
61337;BME280;47212;41.326;2.104;2023-07-13T08:11:26;101625.41;;;28.44;67.68
61337;BME280;47212;41.326;2.104;2023-07-13T08:16:32;101631.19;;;28.35;67.77
61337;BME280;47212;41.326;2.104;2023-07-13T08:21:36;101624.41;;;28.36;68.62
61337;BME280;47212;41.326;2.104;2023-07-13T08:26:40;101624.75;;;28.50;68.55
61337;BME280;47212;41.326;2.104;2023-07-13T08:31:42;101626.56;;;28.59;68.26
61337;BME280;47212;41.326;2.104;2023-07-13T08:36:50;101626.94;;;28.57;68.30
61337;BME280;47212;41.326;2.104;2023-07-13T08:41:56;101629.47;;;28.46;67.64
61337;BME280;47212;41.326;2.104;2023-07-13T08:47:01;101636.88;;;28.54;68.08
61337;BME280;47212;41.326;2.104;2023-07-13T08:57:26;101631.19;;;28.67;68.04
61337;BME280;47212;41.326;2.104;2023-07-13T09:02:58;101628.03;;;28.84;67.47
61337;BME280;47212;41.326;2.104;2023-07-13T09:13:51;101638.72;;;28.98;68.19
61337;BME280;47212;41.326;2.104;2023-07-13T09:19:00;101629.16;;;28.99;68.21
61337;BME280;47212;41.326;2.104;2023-07-13T09:29:45;101637.03;;;28.93;66.97
61337;BME280;47212;41.326;2.104;2023-07-13T09:34:50;101638.22;;;28.92;65.44
61337;BME280;47212;41.326;2.104;2023-07-13T09:39:54;101648.88;;;28.87;66.11
61337;BME280;47212;41.326;2.104;2023-07-13T09:45:00;101656.69;;;28.62;66.60
61337;BME280;47212;41.326;2.104;2023-07-13T09:50:15;101664.88;;;28.54;66.58
61337;BME280;47212;41.326;2.104;2023-07-13T09:55:39;101655.66;;;28.54;65.69
61337;BME280;47212;41.326;2.104;2023-07-13T10:00:42;101673.00;;;28.60;63.10
61337;BME280;47212;41.326;2.104;2023-07-13T10:05:47;101666.94;;;28.58;63.01
61337;BME280;47212;41.326;2.104;2023-07-13T10:10:57;101678.25;;;28.77;61.59
61337;BME280;47212;41.326;2.104;2023-07-13T10:16:04;101671.66;;;28.69;61.68
61337;BME280;47212;41.326;2.104;2023-07-13T10:21:21;101683.84;;;28.45;60.24
61337;BME280;47212;41.326;2.104;2023-07-13T10:26:32;101674.81;;;28.36;59.29
61337;BME280;47212;41.326;2.104;2023-07-13T10:31:39;101677.34;;;28.41;58.42
61337;BME280;47212;41.326;2.104;2023-07-13T10:36:46;101681.31;;;28.40;59.03
61337;BME280;47212;41.326;2.104;2023-07-13T10:42:11;101686.28;;;28.47;57.79
61337;BME280;47212;41.326;2.104;2023-07-13T10:47:17;101685.47;;;28.46;57.43
61337;BME280;47212;41.326;2.104;2023-07-13T10:52:46;101683.03;;;28.45;55.52
61337;BME280;47212;41.326;2.104;2023-07-13T10:57:51;101685.75;;;28.41;56.37
61337;BME280;47212;41.326;2.104;2023-07-13T11:03:00;101692.44;;;28.52;54.84
61337;BME280;47212;41.326;2.104;2023-07-13T11:08:35;101686.50;;;28.70;52.96
61337;BME280;47212;41.326;2.104;2023-07-13T11:18:52;101696.06;;;28.69;51.58
61337;BME280;47212;41.326;2.104;2023-07-13T11:24:16;101694.09;;;28.69;49.85
61337;BME280;47212;41.326;2.104;2023-07-13T11:29:40;101670.13;;;28.72;49.78
61337;BME280;47212;41.326;2.104;2023-07-13T11:34:43;101666.53;;;28.87;50.98
61337;BME280;47212;41.326;2.104;2023-07-13T11:39:58;101671.13;;;28.95;48.48
61337;BME280;47212;41.326;2.104;2023-07-13T11:45:20;101661.06;;;28.94;51.38
61337;BME280;47212;41.326;2.104;2023-07-13T11:50:50;101665.88;;;28.94;49.71
61337;BME280;47212;41.326;2.104;2023-07-13T11:55:54;101658.06;;;29.03;50.08
61337;BME280;47212;41.326;2.104;2023-07-13T12:01:03;101650.69;;;28.95;49.47
61337;BME280;47212;41.326;2.104;2023-07-13T12:06:31;101656.38;;;28.98;47.80
61337;BME280;47212;41.326;2.104;2023-07-13T12:11:35;101646.09;;;28.87;49.57
61337;BME280;47212;41.326;2.104;2023-07-13T12:16:44;101635.31;;;28.89;49.81
61337;BME280;47212;41.326;2.104;2023-07-13T12:21:47;101647.97;;;28.98;49.37
61337;BME280;47212;41.326;2.104;2023-07-13T12:27:02;101644.25;;;28.94;49.02
61337;BME280;47212;41.326;2.104;2023-07-13T12:32:09;101635.84;;;28.94;49.69
61337;BME280;47212;41.326;2.104;2023-07-13T12:37:15;101639.31;;;28.72;50.20
61337;BME280;47212;41.326;2.104;2023-07-13T12:42:27;101628.47;;;28.70;50.19
61337;BME280;47212;41.326;2.104;2023-07-13T12:47:30;101622.56;;;28.91;48.36
61337;BME280;47212;41.326;2.104;2023-07-13T12:52:50;101622.94;;;28.90;49.30
61337;BME280;47212;41.326;2.104;2023-07-13T12:57:56;101622.88;;;28.70;50.24
61337;BME280;47212;41.326;2.104;2023-07-13T13:03:26;101606.06;;;28.70;50.35
61337;BME280;47212;41.326;2.104;2023-07-13T13:08:35;101615.09;;;28.64;51.50
61337;BME280;47212;41.326;2.104;2023-07-13T13:13:43;101593.31;;;28.73;50.34
61337;BME280;47212;41.326;2.104;2023-07-13T13:18:49;101595.81;;;28.78;49.90
61337;BME280;47212;41.326;2.104;2023-07-13T13:23:54;101604.13;;;28.90;48.58
61337;BME280;47212;41.326;2.104;2023-07-13T13:29:19;101596.31;;;28.99;47.16
61337;BME280;47212;41.326;2.104;2023-07-13T13:34:23;101605.41;;;29.12;49.29
61337;BME280;47212;41.326;2.104;2023-07-13T13:39:36;101605.41;;;29.12;50.08
61337;BME280;47212;41.326;2.104;2023-07-13T13:44:40;101596.47;;;29.06;48.89
61337;BME280;47212;41.326;2.104;2023-07-13T13:50:12;101592.13;;;29.09;50.11
61337;BME280;47212;41.326;2.104;2023-07-13T13:55:24;101588.22;;;29.13;50.31
61337;BME280;47212;41.326;2.104;2023-07-13T14:00:34;101586.75;;;29.00;51.61
61337;BME280;47212;41.326;2.104;2023-07-13T14:05:48;101582.69;;;28.82;53.11
61337;BME280;47212;41.326;2.104;2023-07-13T14:11:11;101590.66;;;28.80;54.29
61337;BME280;47212;41.326;2.104;2023-07-13T14:16:19;101584.53;;;28.74;54.95
61337;BME280;47212;41.326;2.104;2023-07-13T14:21:28;101581.94;;;28.66;55.42
61337;BME280;47212;41.326;2.104;2023-07-13T14:26:45;101587.47;;;28.62;56.19
61337;BME280;47212;41.326;2.104;2023-07-13T14:31:51;101584.91;;;28.57;56.48
61337;BME280;47212;41.326;2.104;2023-07-13T14:36:55;101592.06;;;28.54;57.62
61337;BME280;47212;41.326;2.104;2023-07-13T14:42:00;101584.50;;;28.39;58.76
61337;BME280;47212;41.326;2.104;2023-07-13T14:47:08;101582.59;;;28.43;59.53
61337;BME280;47212;41.326;2.104;2023-07-13T14:52:14;101593.25;;;28.38;59.28
61337;BME280;47212;41.326;2.104;2023-07-13T14:57:19;101579.25;;;28.22;60.67
61337;BME280;47212;41.326;2.104;2023-07-13T15:02:32;101593.50;;;28.17;62.02
61337;BME280;47212;41.326;2.104;2023-07-13T15:07:40;101589.91;;;28.01;63.12
61337;BME280;47212;41.326;2.104;2023-07-13T15:12:42;101590.78;;;27.89;63.77
61337;BME280;47212;41.326;2.104;2023-07-13T15:17:55;101589.88;;;27.85;64.87
61337;BME280;47212;41.326;2.104;2023-07-13T15:22:58;101591.53;;;28.02;65.38
61337;BME280;47212;41.326;2.104;2023-07-13T15:28:01;101593.59;;;28.05;65.67
61337;BME280;47212;41.326;2.104;2023-07-13T15:33:15;101590.44;;;27.90;67.06
61337;BME280;47212;41.326;2.104;2023-07-13T15:38:24;101587.38;;;27.96;67.23
61337;BME280;47212;41.326;2.104;2023-07-13T15:43:32;101587.00;;;28.13;67.55
61337;BME280;47212;41.326;2.104;2023-07-13T15:48:34;101589.09;;;28.16;67.06
61337;BME280;47212;41.326;2.104;2023-07-13T15:53:38;101583.75;;;28.11;66.71
61337;BME280;47212;41.326;2.104;2023-07-13T15:58:41;101578.69;;;28.16;66.73
61337;BME280;47212;41.326;2.104;2023-07-13T16:03:43;101574.63;;;28.14;66.33
61337;BME280;47212;41.326;2.104;2023-07-13T16:08:46;101586.03;;;28.05;68.37
61337;BME280;47212;41.326;2.104;2023-07-13T16:13:49;101586.72;;;27.86;68.45
61337;BME280;47212;41.326;2.104;2023-07-13T16:18:59;101588.31;;;27.72;69.77
61337;BME280;47212;41.326;2.104;2023-07-13T16:24:15;101584.25;;;27.69;70.00
61337;BME280;47212;41.326;2.104;2023-07-13T16:29:20;101566.78;;;27.60;70.21
61337;BME280;47212;41.326;2.104;2023-07-13T16:34:23;101570.88;;;27.63;70.65
61337;BME280;47212;41.326;2.104;2023-07-13T16:39:31;101583.81;;;27.55;71.59
61337;BME280;47212;41.326;2.104;2023-07-13T16:45:01;101572.63;;;27.55;70.89
61337;BME280;47212;41.326;2.104;2023-07-13T16:50:17;101577.88;;;27.56;72.26
61337;BME280;47212;41.326;2.104;2023-07-13T16:55:26;101569.47;;;27.56;71.65
61337;BME280;47212;41.326;2.104;2023-07-13T17:00:36;101565.41;;;27.54;71.64
61337;BME280;47212;41.326;2.104;2023-07-13T17:05:51;101569.25;;;27.62;72.84
61337;BME280;47212;41.326;2.104;2023-07-13T17:11:01;101560.03;;;27.61;71.46
61337;BME280;47212;41.326;2.104;2023-07-13T17:16:09;101576.84;;;27.61;72.15
61337;BME280;47212;41.326;2.104;2023-07-13T17:21:17;101575.69;;;27.50;72.59
61337;BME280;47212;41.326;2.104;2023-07-13T17:26:22;101572.03;;;27.34;72.79
61337;BME280;47212;41.326;2.104;2023-07-13T17:31:24;101570.31;;;27.29;73.14
61337;BME280;47212;41.326;2.104;2023-07-13T17:36:34;101563.91;;;27.28;73.12
61337;BME280;47212;41.326;2.104;2023-07-13T17:41:36;101577.63;;;27.34;72.97
61337;BME280;47212;41.326;2.104;2023-07-13T17:46:38;101576.38;;;27.31;73.02
61337;BME280;47212;41.326;2.104;2023-07-13T17:51:43;101576.63;;;27.26;72.94
61337;BME280;47212;41.326;2.104;2023-07-13T17:56:46;101572.56;;;27.23;73.14
61337;BME280;47212;41.326;2.104;2023-07-13T18:01:57;101580.94;;;27.23;73.32
61337;BME280;47212;41.326;2.104;2023-07-13T18:07:02;101577.44;;;27.26;73.38
61337;BME280;47212;41.326;2.104;2023-07-13T18:12:10;101578.50;;;27.22;73.32
61337;BME280;47212;41.326;2.104;2023-07-13T18:17:13;101576.41;;;27.19;73.50
61337;BME280;47212;41.326;2.104;2023-07-13T18:22:16;101569.81;;;27.11;73.61
61337;BME280;47212;41.326;2.104;2023-07-13T18:27:20;101571.31;;;27.09;73.71
61337;BME280;47212;41.326;2.104;2023-07-13T18:32:22;101573.78;;;27.10;74.00
61337;BME280;47212;41.326;2.104;2023-07-13T18:37:25;101577.28;;;27.07;73.51
61337;BME280;47212;41.326;2.104;2023-07-13T18:42:29;101567.16;;;27.03;73.85
61337;BME280;47212;41.326;2.104;2023-07-13T18:47:32;101573.56;;;27.03;74.00
61337;BME280;47212;41.326;2.104;2023-07-13T18:52:36;101593.69;;;27.09;74.19
61337;BME280;47212;41.326;2.104;2023-07-13T18:57:38;101595.88;;;27.15;73.95
61337;BME280;47212;41.326;2.104;2023-07-13T19:02:43;101589.13;;;27.16;73.92
61337;BME280;47212;41.326;2.104;2023-07-13T19:07:47;101591.34;;;27.11;73.69
61337;BME280;47212;41.326;2.104;2023-07-13T19:12:55;101585.19;;;27.05;74.27
61337;BME280;47212;41.326;2.104;2023-07-13T19:18:01;101589.41;;;26.99;74.66
61337;BME280;47212;41.326;2.104;2023-07-13T19:23:09;101583.81;;;26.99;74.12
61337;BME280;47212;41.326;2.104;2023-07-13T19:28:39;101578.91;;;26.96;74.74
61337;BME280;47212;41.326;2.104;2023-07-13T19:33:42;101587.53;;;26.91;74.17
61337;BME280;47212;41.326;2.104;2023-07-13T19:38:46;101583.47;;;26.88;73.99
61337;BME280;47212;41.326;2.104;2023-07-13T19:43:51;101586.59;;;26.87;74.13
61337;BME280;47212;41.326;2.104;2023-07-13T19:48:54;101599.41;;;26.88;73.88
61337;BME280;47212;41.326;2.104;2023-07-13T19:54:10;101612.06;;;26.85;74.63
61337;BME280;47212;41.326;2.104;2023-07-13T19:59:29;101608.00;;;26.83;75.04
61337;BME280;47212;41.326;2.104;2023-07-13T20:04:32;101619.53;;;26.81;74.82
61337;BME280;47212;41.326;2.104;2023-07-13T20:09:38;101624.91;;;26.74;75.15
61337;BME280;47212;41.326;2.104;2023-07-13T20:14:45;101634.56;;;26.77;75.33
61337;BME280;47212;41.326;2.104;2023-07-13T20:19:48;101647.69;;;26.76;75.22
61337;BME280;47212;41.326;2.104;2023-07-13T20:24:50;101649.22;;;26.74;75.23
61337;BME280;47212;41.326;2.104;2023-07-13T20:29:52;101653.75;;;26.66;75.45
61337;BME280;47212;41.326;2.104;2023-07-13T20:34:57;101656.31;;;26.59;75.79
61337;BME280;47212;41.326;2.104;2023-07-13T20:40:21;101664.00;;;26.62;76.12
61337;BME280;47212;41.326;2.104;2023-07-13T20:45:28;101668.31;;;26.72;75.77
61337;BME280;47212;41.326;2.104;2023-07-13T20:50:46;101673.78;;;26.68;75.87
61337;BME280;47212;41.326;2.104;2023-07-13T20:55:48;101680.06;;;26.65;75.91
61337;BME280;47212;41.326;2.104;2023-07-13T21:00:51;101690.53;;;26.68;76.02
61337;BME280;47212;41.326;2.104;2023-07-13T21:06:05;101686.81;;;26.76;76.03
61337;BME280;47212;41.326;2.104;2023-07-13T21:11:08;101691.81;;;26.71;76.19
61337;BME280;47212;41.326;2.104;2023-07-13T21:16:27;101695.41;;;26.59;77.21
61337;BME280;47212;41.326;2.104;2023-07-13T21:21:33;101681.91;;;26.49;77.03
61337;BME280;47212;41.326;2.104;2023-07-13T21:26:35;101690.16;;;26.45;77.19
61337;BME280;47212;41.326;2.104;2023-07-13T21:31:37;101696.78;;;26.41;77.34
61337;BME280;47212;41.326;2.104;2023-07-13T21:36:40;101699.66;;;26.32;77.14
61337;BME280;47212;41.326;2.104;2023-07-13T21:41:46;101711.50;;;26.29;77.16
61337;BME280;47212;41.326;2.104;2023-07-13T21:46:48;101704.88;;;26.21;76.97
61337;BME280;47212;41.326;2.104;2023-07-13T21:51:52;101694.19;;;26.23;76.91
61337;BME280;47212;41.326;2.104;2023-07-13T21:56:58;101690.16;;;26.33;76.67
61337;BME280;47212;41.326;2.104;2023-07-13T22:02:12;101690.81;;;26.30;76.50
61337;BME280;47212;41.326;2.104;2023-07-13T22:07:16;101687.84;;;26.35;76.29
61337;BME280;47212;41.326;2.104;2023-07-13T22:12:21;101684.00;;;26.40;75.93
61337;BME280;47212;41.326;2.104;2023-07-13T22:17:28;101688.28;;;26.37;75.61
61337;BME280;47212;41.326;2.104;2023-07-13T22:22:40;101675.97;;;26.38;75.64
61337;BME280;47212;41.326;2.104;2023-07-13T22:27:45;101675.63;;;26.40;75.67
61337;BME280;47212;41.326;2.104;2023-07-13T22:32:49;101680.63;;;26.34;75.89
61337;BME280;47212;41.326;2.104;2023-07-13T22:37:59;101677.31;;;26.32;76.08
61337;BME280;47212;41.326;2.104;2023-07-13T22:48:34;101671.97;;;26.27;75.42
61337;BME280;47212;41.326;2.104;2023-07-13T22:53:43;101669.19;;;26.27;75.37
61337;BME280;47212;41.326;2.104;2023-07-13T22:58:51;101660.34;;;26.25;75.15
61337;BME280;47212;41.326;2.104;2023-07-13T23:03:57;101652.22;;;26.32;74.68
61337;BME280;47212;41.326;2.104;2023-07-13T23:09:03;101655.50;;;26.34;74.37
61337;BME280;47212;41.326;2.104;2023-07-13T23:14:06;101657.47;;;26.33;74.02
61337;BME280;47212;41.326;2.104;2023-07-13T23:19:25;101652.69;;;26.34;73.12
61337;BME280;47212;41.326;2.104;2023-07-13T23:24:49;101665.34;;;26.31;72.58
61337;BME280;47212;41.326;2.104;2023-07-13T23:29:56;101666.03;;;26.28;72.94
61337;BME280;47212;41.326;2.104;2023-07-13T23:34:58;101666.72;;;26.25;72.93
61337;BME280;47212;41.326;2.104;2023-07-13T23:40:01;101663.34;;;26.20;72.83
61337;BME280;47212;41.326;2.104;2023-07-13T23:45:23;101670.56;;;26.21;72.71
61337;BME280;47212;41.326;2.104;2023-07-13T23:50:31;101667.91;;;26.24;72.73
61337;BME280;47212;41.326;2.104;2023-07-13T23:55:36;101659.66;;;26.28;72.32
